sensor_id;sensor_type;location;lat;lon;timestamp;pressure;altitude;pressure_sealevel;temperature;humidity
73341;BME280;61578;52.002;5.468;2023-04-27T00:00:03;102089.81;;;3.15;82.22
73341;BME280;61578;52.002;5.468;2023-04-27T00:00:40;102099.38;;;3.18;82.39
73341;BME280;61578;52.002;5.468;2023-04-27T00:01:11;102095.88;;;3.17;82.44
73341;BME280;61578;52.002;5.468;2023-04-27T00:01:42;102096.75;;;3.16;82.72
73341;BME280;61578;52.002;5.468;2023-04-27T00:02:13;102089.81;;;3.15;82.16
73341;BME280;61578;52.002;5.468;2023-04-27T00:02:45;102095.88;;;3.16;82.37
73341;BME280;61578;52.002;5.468;2023-04-27T00:03:15;102107.25;;;3.16;82.28
73341;BME280;61578;52.002;5.468;2023-04-27T00:03:49;102101.13;;;3.16;82.48
73341;BME280;61578;52.002;5.468;2023-04-27T00:04:23;102100.31;;;3.15;82.71
73341;BME280;61578;52.002;5.468;2023-04-27T00:04:54;102102.00;;;3.16;82.62
73341;BME280;61578;52.002;5.468;2023-04-27T00:05:25;102107.25;;;3.16;82.71
73341;BME280;61578;52.002;5.468;2023-04-27T00:05:56;102099.44;;;3.13;82.74
73341;BME280;61578;52.002;5.468;2023-04-27T00:06:27;102093.38;;;3.08;82.41
73341;BME280;61578;52.002;5.468;2023-04-27T00:07:01;102095.97;;;3.10;82.35
73341;BME280;61578;52.002;5.468;2023-04-27T00:07:32;102106.38;;;3.16;81.94
73341;BME280;61578;52.002;5.468;2023-04-27T00:08:02;102109.91;;;3.15;81.76
73341;BME280;61578;52.002;5.468;2023-04-27T00:08:33;102109.94;;;3.13;81.94
73341;BME280;61578;52.002;5.468;2023-04-27T00:09:04;102109.91;;;3.15;82.72
73341;BME280;61578;52.002;5.468;2023-04-27T00:09:35;102104.72;;;3.12;82.20
73341;BME280;61578;52.002;5.468;2023-04-27T00:10:06;102109.97;;;3.10;82.33
73341;BME280;61578;52.002;5.468;2023-04-27T00:10:38;102106.47;;;3.11;82.79
73341;BME280;61578;52.002;5.468;2023-04-27T00:11:09;102096.84;;;3.10;82.49
73341;BME280;61578;52.002;5.468;2023-04-27T00:11:39;102097.72;;;3.11;82.72
73341;BME280;61578;52.002;5.468;2023-04-27T00:12:10;102105.56;;;3.12;82.41
73341;BME280;61578;52.002;5.468;2023-04-27T00:12:41;102089.09;;;3.03;82.27
73341;BME280;61578;52.002;5.468;2023-04-27T00:13:11;102103.84;;;3.11;82.32
73341;BME280;61578;52.002;5.468;2023-04-27T00:13:42;102106.47;;;3.11;82.46
73341;BME280;61578;52.002;5.468;2023-04-27T00:14:13;102093.44;;;3.04;82.59
73341;BME280;61578;52.002;5.468;2023-04-27T00:14:44;102102.16;;;3.06;82.08
73341;BME280;61578;52.002;5.468;2023-04-27T00:15:14;102103.00;;;3.08;82.30
73341;BME280;61578;52.002;5.468;2023-04-27T00:15:45;102104.75;;;3.07;82.10
73341;BME280;61578;52.002;5.468;2023-04-27T00:16:16;102103.06;;;3.03;82.06
73341;BME280;61578;52.002;5.468;2023-04-27T00:16:47;102080.47;;;2.93;82.58
73341;BME280;61578;52.002;5.468;2023-04-27T00:17:17;102097.00;;;2.98;82.33
73341;BME280;61578;52.002;5.468;2023-04-27T00:17:48;102103.06;;;3.05;82.44
73341;BME280;61578;52.002;5.468;2023-04-27T00:18:19;102101.38;;;2.99;82.06
73341;BME280;61578;52.002;5.468;2023-04-27T00:18:50;102106.56;;;3.04;82.20
73341;BME280;61578;52.002;5.468;2023-04-27T00:19:24;102109.19;;;3.05;82.17
73341;BME280;61578;52.002;5.468;2023-04-27T00:19:56;102109.19;;;3.04;82.38
73341;BME280;61578;52.002;5.468;2023-04-27T00:20:26;102103.09;;;3.02;82.48
73341;BME280;61578;52.002;5.468;2023-04-27T00:20:57;102104.81;;;3.03;82.69
73341;BME280;61578;52.002;5.468;2023-04-27T00:21:28;102102.22;;;3.01;82.44
73341;BME280;61578;52.002;5.468;2023-04-27T00:21:59;102100.47;;;3.00;82.43
73341;BME280;61578;52.002;5.468;2023-04-27T00:22:30;102105.72;;;3.02;82.49
73341;BME280;61578;52.002;5.468;2023-04-27T00:23:00;102106.56;;;3.04;82.53
73341;BME280;61578;52.002;5.468;2023-04-27T00:23:31;102104.81;;;3.03;82.55
73341;BME280;61578;52.002;5.468;2023-04-27T00:24:05;102097.00;;;2.98;82.59
73341;BME280;61578;52.002;5.468;2023-04-27T00:24:36;102099.59;;;3.03;82.08
73341;BME280;61578;52.002;5.468;2023-04-27T00:25:07;102083.09;;;2.91;82.26
73341;BME280;61578;52.002;5.468;2023-04-27T00:25:38;102110.94;;;3.05;82.57
73341;BME280;61578;52.002;5.468;2023-04-27T00:26:09;102102.19;;;3.04;82.50
73341;BME280;61578;52.002;5.468;2023-04-27T00:26:40;102107.44;;;3.04;82.27
73341;BME280;61578;52.002;5.468;2023-04-27T00:27:10;102083.09;;;2.91;82.73
73341;BME280;61578;52.002;5.468;2023-04-27T00:27:43;102108.31;;;3.03;82.33
73341;BME280;61578;52.002;5.468;2023-04-27T00:28:13;102103.94;;;3.05;82.25
73341;BME280;61578;52.002;5.468;2023-04-27T00:28:44;102106.56;;;3.05;82.08
73341;BME280;61578;52.002;5.468;2023-04-27T00:29:16;102103.94;;;3.05;82.65
73341;BME280;61578;52.002;5.468;2023-04-27T00:29:50;102088.31;;;2.94;81.98
73341;BME280;61578;52.002;5.468;2023-04-27T00:30:21;102107.44;;;3.04;82.17
73341;BME280;61578;52.002;5.468;2023-04-27T00:30:54;102107.47;;;3.01;82.28
73341;BME280;61578;52.002;5.468;2023-04-27T00:31:25;102108.34;;;3.02;81.91
73341;BME280;61578;52.002;5.468;2023-04-27T00:31:56;102106.59;;;3.01;82.40
73341;BME280;61578;52.002;5.468;2023-04-27T00:32:26;102105.72;;;3.00;82.29
73341;BME280;61578;52.002;5.468;2023-04-27T00:32:57;102104.00;;;2.99;82.40
73341;BME280;61578;52.002;5.468;2023-04-27T00:33:28;102095.34;;;2.91;82.21
73341;BME280;61578;52.002;5.468;2023-04-27T00:33:59;102101.44;;;2.94;82.25
73341;BME280;61578;52.002;5.468;2023-04-27T00:34:29;102102.25;;;2.98;82.50
73341;BME280;61578;52.002;5.468;2023-04-27T00:35:00;102105.75;;;2.99;82.51
73341;BME280;61578;52.002;5.468;2023-04-27T00:35:32;102101.38;;;2.97;82.17
73341;BME280;61578;52.002;5.468;2023-04-27T00:36:06;102107.50;;;2.98;82.63
73341;BME280;61578;52.002;5.468;2023-04-27T00:36:37;102091.84;;;2.93;82.32
73341;BME280;61578;52.002;5.468;2023-04-27T00:37:10;102096.09;;;3.01;82.24
73341;BME280;61578;52.002;5.468;2023-04-27T00:37:44;102097.84;;;3.02;82.74
73341;BME280;61578;52.002;5.468;2023-04-27T00:38:15;102096.97;;;3.01;82.28
73341;BME280;61578;52.002;5.468;2023-04-27T00:38:45;102095.25;;;2.99;82.48
73341;BME280;61578;52.002;5.468;2023-04-27T00:39:22;102098.75;;;2.99;82.69
73341;BME280;61578;52.002;5.468;2023-04-27T00:39:53;102093.47;;;3.01;82.58
73341;BME280;61578;52.002;5.468;2023-04-27T00:40:24;102097.84;;;3.02;82.18
73341;BME280;61578;52.002;5.468;2023-04-27T00:41:06;102097.00;;;2.98;82.38
73341;BME280;61578;52.002;5.468;2023-04-27T00:41:37;102100.47;;;3.00;82.68
73341;BME280;61578;52.002;5.468;2023-04-27T00:42:12;102099.63;;;2.96;82.46
73341;BME280;61578;52.002;5.468;2023-04-27T00:42:45;102096.13;;;2.99;82.51
73341;BME280;61578;52.002;5.468;2023-04-27T00:43:16;102097.00;;;2.98;82.10
73341;BME280;61578;52.002;5.468;2023-04-27T00:43:46;102096.13;;;2.97;82.50
73341;BME280;61578;52.002;5.468;2023-04-27T00:44:26;102097.91;;;2.95;82.89
73341;BME280;61578;52.002;5.468;2023-04-27T00:44:57;102101.41;;;2.96;82.70
73341;BME280;61578;52.002;5.468;2023-04-27T00:45:28;102093.53;;;2.96;82.58
73341;BME280;61578;52.002;5.468;2023-04-27T00:45:59;102095.28;;;2.95;82.64
73341;BME280;61578;52.002;5.468;2023-04-27T00:46:32;102097.97;;;2.92;82.25
73341;BME280;61578;52.002;5.468;2023-04-27T00:47:06;102095.34;;;2.91;82.63
73341;BME280;61578;52.002;5.468;2023-04-27T00:47:36;102101.44;;;2.93;82.96
73341;BME280;61578;52.002;5.468;2023-04-27T00:48:09;102102.31;;;2.93;82.92
73341;BME280;61578;52.002;5.468;2023-04-27T00:48:41;102097.06;;;2.95;82.53
73341;BME280;61578;52.002;5.468;2023-04-27T00:49:13;102102.31;;;2.93;82.68
73341;BME280;61578;52.002;5.468;2023-04-27T00:49:47;102093.59;;;2.93;83.02
73341;BME280;61578;52.002;5.468;2023-04-27T00:50:26;102096.25;;;2.90;82.82
73341;BME280;61578;52.002;5.468;2023-04-27T00:50:59;102105.81;;;2.94;83.13
73341;BME280;61578;52.002;5.468;2023-04-27T00:51:30;102102.31;;;2.95;83.23
73341;BME280;61578;52.002;5.468;2023-04-27T00:52:01;102102.31;;;2.95;82.79
73341;BME280;61578;52.002;5.468;2023-04-27T00:52:35;102095.31;;;2.94;83.07
73341;BME280;61578;52.002;5.468;2023-04-27T00:53:06;102100.47;;;3.00;82.82
73341;BME280;61578;52.002;5.468;2023-04-27T00:53:37;102103.97;;;3.01;83.22
73341;BME280;61578;52.002;5.468;2023-04-27T00:54:08;102078.78;;;2.87;82.89
73341;BME280;61578;52.002;5.468;2023-04-27T00:54:41;102098.72;;;3.01;82.71
73341;BME280;61578;52.002;5.468;2023-04-27T00:55:15;102096.09;;;3.01;82.50
73341;BME280;61578;52.002;5.468;2023-04-27T00:55:52;102100.47;;;3.00;82.30
73341;BME280;61578;52.002;5.468;2023-04-27T00:56:22;102084.03;;;2.86;82.61
73341;BME280;61578;52.002;5.468;2023-04-27T00:56:56;102090.91;;;2.96;82.55
73341;BME280;61578;52.002;5.468;2023-04-27T00:57:27;102099.69;;;2.95;82.65
73341;BME280;61578;52.002;5.468;2023-04-27T00:58:00;102096.19;;;2.94;83.47
73341;BME280;61578;52.002;5.468;2023-04-27T00:58:34;102100.56;;;2.94;83.17
73341;BME280;61578;52.002;5.468;2023-04-27T00:59:05;102097.06;;;2.93;82.82
73341;BME280;61578;52.002;5.468;2023-04-27T00:59:35;102096.16;;;2.96;83.11
73341;BME280;61578;52.002;5.468;2023-04-27T01:00:06;102098.84;;;2.93;83.04
73341;BME280;61578;52.002;5.468;2023-04-27T01:00:40;102101.41;;;2.96;83.05
73341;BME280;61578;52.002;5.468;2023-04-27T01:01:11;102097.06;;;2.95;82.76
73341;BME280;61578;52.002;5.468;2023-04-27T01:01:48;102095.31;;;2.94;83.21
73341;BME280;61578;52.002;5.468;2023-04-27T01:02:20;102102.31;;;2.93;82.86
73341;BME280;61578;52.002;5.468;2023-04-27T01:02:54;102105.81;;;2.94;82.81
73341;BME280;61578;52.002;5.468;2023-04-27T01:03:29;102095.34;;;2.92;82.82
73341;BME280;61578;52.002;5.468;2023-04-27T01:03:59;102095.34;;;2.91;82.93
73341;BME280;61578;52.002;5.468;2023-04-27T01:04:34;102096.22;;;2.91;82.63
73341;BME280;61578;52.002;5.468;2023-04-27T01:05:08;102079.72;;;2.82;83.01
73341;BME280;61578;52.002;5.468;2023-04-27T01:05:43;102098.00;;;2.89;83.13
73341;BME280;61578;52.002;5.468;2023-04-27T01:06:19;102097.13;;;2.89;83.04
73341;BME280;61578;52.002;5.468;2023-04-27T01:06:51;102093.69;;;2.84;82.34
73341;BME280;61578;52.002;5.468;2023-04-27T01:07:26;102088.41;;;2.87;82.87
73341;BME280;61578;52.002;5.468;2023-04-27T01:07:57;102084.94;;;2.85;83.10
73341;BME280;61578;52.002;5.468;2023-04-27T01:08:28;102089.34;;;2.83;82.70
73341;BME280;61578;52.002;5.468;2023-04-27T01:08:59;102078.91;;;2.75;82.67
73341;BME280;61578;52.002;5.468;2023-04-27T01:09:30;102085.88;;;2.78;82.91
73341;BME280;61578;52.002;5.468;2023-04-27T01:10:00;102088.50;;;2.79;82.69
73341;BME280;61578;52.002;5.468;2023-04-27T01:10:31;102089.38;;;2.78;82.43
73341;BME280;61578;52.002;5.468;2023-04-27T01:11:02;102093.78;;;2.76;82.60
73341;BME280;61578;52.002;5.468;2023-04-27T01:11:33;102086.84;;;2.74;82.60
73341;BME280;61578;52.002;5.468;2023-04-27T01:12:05;102086.84;;;2.74;82.70
73341;BME280;61578;52.002;5.468;2023-04-27T01:12:36;102081.59;;;2.74;83.30
73341;BME280;61578;52.002;5.468;2023-04-27T01:13:08;102082.47;;;2.71;83.50
73341;BME280;61578;52.002;5.468;2023-04-27T01:13:39;102085.97;;;2.73;83.30
73341;BME280;61578;52.002;5.468;2023-04-27T01:14:10;102081.63;;;2.71;83.14
73341;BME280;61578;52.002;5.468;2023-04-27T01:14:43;102068.63;;;2.62;83.08
73341;BME280;61578;52.002;5.468;2023-04-27T01:15:17;102066.88;;;2.61;83.50
73341;BME280;61578;52.002;5.468;2023-04-27T01:15:47;102092.13;;;2.69;83.54
73341;BME280;61578;52.002;5.468;2023-04-27T01:16:19;102079.88;;;2.68;83.06
73341;BME280;61578;52.002;5.468;2023-04-27T01:16:50;102086.00;;;2.69;83.23
73341;BME280;61578;52.002;5.468;2023-04-27T01:17:22;102089.50;;;2.68;83.39
73341;BME280;61578;52.002;5.468;2023-04-27T01:17:57;102086.00;;;2.67;83.05
73341;BME280;61578;52.002;5.468;2023-04-27T01:18:31;102086.91;;;2.66;83.07
73341;BME280;61578;52.002;5.468;2023-04-27T01:19:03;102085.16;;;2.65;83.44
73341;BME280;61578;52.002;5.468;2023-04-27T01:19:34;102086.06;;;2.64;83.16
73341;BME280;61578;52.002;5.468;2023-04-27T01:20:05;102082.53;;;2.65;83.27
73341;BME280;61578;52.002;5.468;2023-04-27T01:20:40;102079.06;;;2.65;83.31
73341;BME280;61578;52.002;5.468;2023-04-27T01:21:11;102082.53;;;2.67;83.49
73341;BME280;61578;52.002;5.468;2023-04-27T01:21:42;102090.38;;;2.67;83.51
73341;BME280;61578;52.002;5.468;2023-04-27T01:22:13;102087.75;;;2.67;83.45
73341;BME280;61578;52.002;5.468;2023-04-27T01:22:44;102062.63;;;2.50;83.74
73341;BME280;61578;52.002;5.468;2023-04-27T01:23:15;102092.13;;;2.69;83.56
73341;BME280;61578;52.002;5.468;2023-04-27T01:23:46;102083.41;;;2.66;83.21
73341;BME280;61578;52.002;5.468;2023-04-27T01:24:17;102084.31;;;2.65;83.42
73341;BME280;61578;52.002;5.468;2023-04-27T01:24:54;102091.25;;;2.69;83.34
73341;BME280;61578;52.002;5.468;2023-04-27T01:25:25;102076.50;;;2.60;83.50
73341;BME280;61578;52.002;5.468;2023-04-27T01:25:56;102087.75;;;2.67;83.53
73341;BME280;61578;52.002;5.468;2023-04-27T01:26:26;102093.84;;;2.72;83.69
73341;BME280;61578;52.002;5.468;2023-04-27T01:26:57;102089.47;;;2.72;83.91
73341;BME280;61578;52.002;5.468;2023-04-27T01:27:28;102101.72;;;2.72;83.47
73341;BME280;61578;52.002;5.468;2023-04-27T01:27:59;102097.34;;;2.72;83.52
73341;BME280;61578;52.002;5.468;2023-04-27T01:28:32;102096.44;;;2.75;83.78
73341;BME280;61578;52.002;5.468;2023-04-27T01:29:03;102086.78;;;2.75;83.35
73341;BME280;61578;52.002;5.468;2023-04-27T01:29:34;102093.75;;;2.78;83.09
73341;BME280;61578;52.002;5.468;2023-04-27T01:30:08;102100.75;;;2.77;83.42
73341;BME280;61578;52.002;5.468;2023-04-27T01:30:40;102092.03;;;2.75;83.24
73341;BME280;61578;52.002;5.468;2023-04-27T01:31:11;102097.31;;;2.74;83.28
73341;BME280;61578;52.002;5.468;2023-04-27T01:31:42;102101.69;;;2.73;83.57
73341;BME280;61578;52.002;5.468;2023-04-27T01:32:18;102104.34;;;2.72;83.08
73341;BME280;61578;52.002;5.468;2023-04-27T01:32:50;102095.59;;;2.70;83.07
73341;BME280;61578;52.002;5.468;2023-04-27T01:33:21;102098.25;;;2.68;82.80
73341;BME280;61578;52.002;5.468;2023-04-27T01:33:52;102096.50;;;2.67;83.33
73341;BME280;61578;52.002;5.468;2023-04-27T01:34:23;102102.69;;;2.65;82.86
73341;BME280;61578;52.002;5.468;2023-04-27T01:34:54;102113.16;;;2.63;83.47
73341;BME280;61578;52.002;5.468;2023-04-27T01:35:25;102114.00;;;2.65;83.13
73341;BME280;61578;52.002;5.468;2023-04-27T01:36:00;102105.28;;;2.65;83.26
73341;BME280;61578;52.002;5.468;2023-04-27T01:36:31;102110.53;;;2.65;83.62
73341;BME280;61578;52.002;5.468;2023-04-27T01:37:02;102095.69;;;2.64;83.71
73341;BME280;61578;52.002;5.468;2023-04-27T01:37:34;102108.81;;;2.61;83.43
73341;BME280;61578;52.002;5.468;2023-04-27T01:38:05;102105.34;;;2.58;83.13
73341;BME280;61578;52.002;5.468;2023-04-27T01:38:35;102110.59;;;2.58;83.28
73341;BME280;61578;52.002;5.468;2023-04-27T01:39:06;102105.34;;;2.57;83.43
73341;BME280;61578;52.002;5.468;2023-04-27T01:39:39;102108.00;;;2.55;83.18
73341;BME280;61578;52.002;5.468;2023-04-27T01:40:10;102090.59;;;2.47;83.05
73341;BME280;61578;52.002;5.468;2023-04-27T01:40:41;102103.63;;;2.54;83.19
73341;BME280;61578;52.002;5.468;2023-04-27T01:41:12;102107.19;;;2.52;82.97
73341;BME280;61578;52.002;5.468;2023-04-27T01:41:42;102101.94;;;2.50;83.21
73341;BME280;61578;52.002;5.468;2023-04-27T01:42:13;102099.31;;;2.50;83.34
73341;BME280;61578;52.002;5.468;2023-04-27T01:42:44;102101.97;;;2.47;83.54
73341;BME280;61578;52.002;5.468;2023-04-27T01:43:15;102096.72;;;2.47;83.49
73341;BME280;61578;52.002;5.468;2023-04-27T01:43:45;102100.22;;;2.48;83.27
73341;BME280;61578;52.002;5.468;2023-04-27T01:44:16;102088.00;;;2.47;83.56
73341;BME280;61578;52.002;5.468;2023-04-27T01:44:50;102094.97;;;2.48;83.73
73341;BME280;61578;52.002;5.468;2023-04-27T01:45:24;102088.00;;;2.47;83.63
73341;BME280;61578;52.002;5.468;2023-04-27T01:45:54;102082.75;;;2.47;83.63
73341;BME280;61578;52.002;5.468;2023-04-27T01:46:25;102085.38;;;2.45;83.73
73341;BME280;61578;52.002;5.468;2023-04-27T01:46:56;102085.38;;;2.45;83.44
73341;BME280;61578;52.002;5.468;2023-04-27T01:47:27;102088.88;;;2.46;83.96
73341;BME280;61578;52.002;5.468;2023-04-27T01:47:57;102073.16;;;2.46;84.11
73341;BME280;61578;52.002;5.468;2023-04-27T01:48:28;102074.91;;;2.45;83.73
73341;BME280;61578;52.002;5.468;2023-04-27T01:48:59;102082.75;;;2.45;83.40
73341;BME280;61578;52.002;5.468;2023-04-27T01:49:30;102083.63;;;2.44;84.10
73341;BME280;61578;52.002;5.468;2023-04-27T01:50:01;102083.63;;;2.44;83.53
73341;BME280;61578;52.002;5.468;2023-04-27T01:50:32;102078.44;;;2.43;83.88
73341;BME280;61578;52.002;5.468;2023-04-27T01:51:05;102079.31;;;2.42;83.94
73341;BME280;61578;52.002;5.468;2023-04-27T01:51:39;102068.88;;;2.36;83.90
73341;BME280;61578;52.002;5.468;2023-04-27T01:52:09;102076.69;;;2.43;83.96
73341;BME280;61578;52.002;5.468;2023-04-27T01:52:40;102075.84;;;2.41;83.87
73341;BME280;61578;52.002;5.468;2023-04-27T01:53:14;102080.19;;;2.42;83.89
73341;BME280;61578;52.002;5.468;2023-04-27T01:53:45;102075.84;;;2.41;83.62
73341;BME280;61578;52.002;5.468;2023-04-27T01:54:18;102074.94;;;2.42;83.58
73341;BME280;61578;52.002;5.468;2023-04-27T01:54:49;102072.31;;;2.42;83.80
73341;BME280;61578;52.002;5.468;2023-04-27T01:55:20;102077.59;;;2.39;83.37
73341;BME280;61578;52.002;5.468;2023-04-27T01:55:51;102074.97;;;2.41;84.13
73341;BME280;61578;52.002;5.468;2023-04-27T01:56:21;102078.44;;;2.41;84.07
73341;BME280;61578;52.002;5.468;2023-04-27T01:56:52;102070.59;;;2.40;83.76
73341;BME280;61578;52.002;5.468;2023-04-27T01:57:23;102080.19;;;2.41;83.81
73341;BME280;61578;52.002;5.468;2023-04-27T01:57:54;102076.72;;;2.37;83.71
73341;BME280;61578;52.002;5.468;2023-04-27T01:58:26;102076.72;;;2.37;83.85
73341;BME280;61578;52.002;5.468;2023-04-27T01:58:59;102074.13;;;2.36;84.38
73341;BME280;61578;52.002;5.468;2023-04-27T01:59:30;102079.34;;;2.37;83.69
73341;BME280;61578;52.002;5.468;2023-04-27T02:00:07;102081.97;;;2.37;83.80
73341;BME280;61578;52.002;5.468;2023-04-27T02:00:44;102080.22;;;2.38;83.99
73341;BME280;61578;52.002;5.468;2023-04-27T02:01:14;102078.47;;;2.38;84.43
73341;BME280;61578;52.002;5.468;2023-04-27T02:01:48;102066.28;;;2.34;84.39
73341;BME280;61578;52.002;5.468;2023-04-27T02:02:18;102079.34;;;2.39;84.32
73341;BME280;61578;52.002;5.468;2023-04-27T02:02:52;102075.84;;;2.38;83.96
73341;BME280;61578;52.002;5.468;2023-04-27T02:03:24;102079.34;;;2.37;83.83
73341;BME280;61578;52.002;5.468;2023-04-27T02:03:56;102077.63;;;2.36;84.06
73341;BME280;61578;52.002;5.468;2023-04-27T02:04:27;102068.88;;;2.36;84.10
73341;BME280;61578;52.002;5.468;2023-04-27T02:04:57;102072.38;;;2.36;84.22
73341;BME280;61578;52.002;5.468;2023-04-27T02:05:28;102077.63;;;2.35;83.70
73341;BME280;61578;52.002;5.468;2023-04-27T02:05:59;102080.25;;;2.36;84.10
73341;BME280;61578;52.002;5.468;2023-04-27T02:06:31;102077.63;;;2.35;83.87
73341;BME280;61578;52.002;5.468;2023-04-27T02:07:03;102081.13;;;2.35;84.31
73341;BME280;61578;52.002;5.468;2023-04-27T02:07:33;102083.78;;;2.32;84.39
73341;BME280;61578;52.002;5.468;2023-04-27T02:08:07;102077.69;;;2.29;84.08
73341;BME280;61578;52.002;5.468;2023-04-27T02:08:38;102080.31;;;2.32;84.11
73341;BME280;61578;52.002;5.468;2023-04-27T02:09:09;102065.53;;;2.23;84.33
73341;BME280;61578;52.002;5.468;2023-04-27T02:09:40;102074.19;;;2.31;84.09
73341;BME280;61578;52.002;5.468;2023-04-27T02:10:11;102078.56;;;2.32;84.55
73341;BME280;61578;52.002;5.468;2023-04-27T02:10:45;102076.81;;;2.31;84.26
73341;BME280;61578;52.002;5.468;2023-04-27T02:11:15;102069.88;;;2.24;84.02
73341;BME280;61578;52.002;5.468;2023-04-27T02:11:46;102064.63;;;2.24;84.54
73341;BME280;61578;52.002;5.468;2023-04-27T02:12:17;102079.44;;;2.31;84.00
73341;BME280;61578;52.002;5.468;2023-04-27T02:12:47;102079.44;;;2.31;84.29
73341;BME280;61578;52.002;5.468;2023-04-27T02:13:21;102077.69;;;2.32;83.98
73341;BME280;61578;52.002;5.468;2023-04-27T02:13:52;102075.94;;;2.32;84.28
73341;BME280;61578;52.002;5.468;2023-04-27T02:14:26;102076.81;;;2.31;83.89
73341;BME280;61578;52.002;5.468;2023-04-27T02:14:56;102065.53;;;2.23;84.05
73341;BME280;61578;52.002;5.468;2023-04-27T02:15:48;102077.69;;;2.29;84.09
73341;BME280;61578;52.002;5.468;2023-04-27T02:16:21;102081.19;;;2.31;84.47
73341;BME280;61578;52.002;5.468;2023-04-27T02:16:52;102082.06;;;2.28;84.36
73341;BME280;61578;52.002;5.468;2023-04-27T02:17:23;102077.69;;;2.29;84.00
73341;BME280;61578;52.002;5.468;2023-04-27T02:17:53;102082.06;;;2.28;83.98
73341;BME280;61578;52.002;5.468;2023-04-27T02:18:27;102074.22;;;2.25;84.10
73341;BME280;61578;52.002;5.468;2023-04-27T02:19:01;102073.44;;;2.20;84.08
73341;BME280;61578;52.002;5.468;2023-04-27T02:19:35;102083.81;;;2.28;84.31
73341;BME280;61578;52.002;5.468;2023-04-27T02:20:06;102084.72;;;2.27;83.99
73341;BME280;61578;52.002;5.468;2023-04-27T02:20:37;102093.44;;;2.26;84.31
73341;BME280;61578;52.002;5.468;2023-04-27T02:21:09;102083.84;;;2.25;84.41
73341;BME280;61578;52.002;5.468;2023-04-27T02:21:40;102081.22;;;2.28;84.56
73341;BME280;61578;52.002;5.468;2023-04-27T02:22:12;102089.06;;;2.28;84.36
73341;BME280;61578;52.002;5.468;2023-04-27T02:22:45;102083.84;;;2.26;84.00
73341;BME280;61578;52.002;5.468;2023-04-27T02:23:20;102085.56;;;2.27;84.40
73341;BME280;61578;52.002;5.468;2023-04-27T02:23:52;102086.47;;;2.26;84.11
73341;BME280;61578;52.002;5.468;2023-04-27T02:24:23;102084.72;;;2.25;84.30
73341;BME280;61578;52.002;5.468;2023-04-27T02:25:03;102076.84;;;2.25;84.50
73341;BME280;61578;52.002;5.468;2023-04-27T02:25:37;102080.41;;;2.22;83.90
73341;BME280;61578;52.002;5.468;2023-04-27T02:26:19;102085.59;;;2.24;84.36
73341;BME280;61578;52.002;5.468;2023-04-27T02:26:51;102079.53;;;2.22;84.04
73341;BME280;61578;52.002;5.468;2023-04-27T02:27:22;102080.41;;;2.21;84.11
73341;BME280;61578;52.002;5.468;2023-04-27T02:27:53;102082.16;;;2.19;83.84
73341;BME280;61578;52.002;5.468;2023-04-27T02:28:23;102081.31;;;2.17;84.12
73341;BME280;61578;52.002;5.468;2023-04-27T02:28:54;102077.81;;;2.18;84.41
73341;BME280;61578;52.002;5.468;2023-04-27T02:29:31;102077.81;;;2.16;84.37
73341;BME280;61578;52.002;5.468;2023-04-27T02:30:09;102079.56;;;2.17;84.76
73341;BME280;61578;52.002;5.468;2023-04-27T02:30:46;102074.31;;;2.17;84.31
73341;BME280;61578;52.002;5.468;2023-04-27T02:31:19;102077.81;;;2.16;84.59
73341;BME280;61578;52.002;5.468;2023-04-27T02:31:50;102078.69;;;2.15;84.61
73341;BME280;61578;52.002;5.468;2023-04-27T02:32:21;102083.94;;;2.14;84.60
73341;BME280;61578;52.002;5.468;2023-04-27T02:32:52;102074.34;;;2.14;84.26
73341;BME280;61578;52.002;5.468;2023-04-27T02:33:25;102080.44;;;2.16;84.25
73341;BME280;61578;52.002;5.468;2023-04-27T02:33:56;102088.28;;;2.16;84.35
73341;BME280;61578;52.002;5.468;2023-04-27T02:34:26;102071.72;;;2.16;84.37
73341;BME280;61578;52.002;5.468;2023-04-27T02:34:57;102071.69;;;2.17;84.53
73341;BME280;61578;52.002;5.468;2023-04-27T02:35:33;102076.94;;;2.16;84.87
73341;BME280;61578;52.002;5.468;2023-04-27T02:36:04;102078.69;;;2.18;84.60
73341;BME280;61578;52.002;5.468;2023-04-27T02:36:35;102082.16;;;2.20;84.93
73341;BME280;61578;52.002;5.468;2023-04-27T02:37:06;102071.69;;;2.20;84.48
73341;BME280;61578;52.002;5.468;2023-04-27T02:37:36;102080.41;;;2.19;84.68
73341;BME280;61578;52.002;5.468;2023-04-27T02:38:07;102060.44;;;2.11;84.36
73341;BME280;61578;52.002;5.468;2023-04-27T02:38:38;102083.91;;;2.21;84.63
73341;BME280;61578;52.002;5.468;2023-04-27T02:39:09;102060.44;;;2.11;84.40
73341;BME280;61578;52.002;5.468;2023-04-27T02:39:42;102074.31;;;2.20;84.17
73341;BME280;61578;52.002;5.468;2023-04-27T02:40:13;102064.78;;;2.13;84.44
73341;BME280;61578;52.002;5.468;2023-04-27T02:40:44;102074.31;;;2.20;84.39
73341;BME280;61578;52.002;5.468;2023-04-27T02:41:15;102076.91;;;2.22;84.43
73341;BME280;61578;52.002;5.468;2023-04-27T02:41:48;102075.16;;;2.22;84.63
73341;BME280;61578;52.002;5.468;2023-04-27T02:42:19;102070.78;;;2.21;84.32
73341;BME280;61578;52.002;5.468;2023-04-27T02:42:50;102074.28;;;2.22;84.52
73341;BME280;61578;52.002;5.468;2023-04-27T02:43:21;102068.19;;;2.20;84.54
73341;BME280;61578;52.002;5.468;2023-04-27T02:43:52;102068.16;;;2.23;84.77
73341;BME280;61578;52.002;5.468;2023-04-27T02:44:23;102054.31;;;2.12;84.71
73341;BME280;61578;52.002;5.468;2023-04-27T02:44:53;102066.41;;;2.24;84.70
73341;BME280;61578;52.002;5.468;2023-04-27T02:45:24;102069.03;;;2.24;84.61
73341;BME280;61578;52.002;5.468;2023-04-27T02:45:55;102059.47;;;2.18;84.74
73341;BME280;61578;52.002;5.468;2023-04-27T02:46:25;102066.38;;;2.25;84.84
73341;BME280;61578;52.002;5.468;2023-04-27T02:46:59;102067.25;;;2.26;84.67
73341;BME280;61578;52.002;5.468;2023-04-27T02:47:30;102063.75;;;2.25;84.71
73341;BME280;61578;52.002;5.468;2023-04-27T02:48:00;102062.00;;;2.27;84.70
73341;BME280;61578;52.002;5.468;2023-04-27T02:48:31;102063.75;;;2.27;84.56
73341;BME280;61578;52.002;5.468;2023-04-27T02:49:05;102042.00;;;2.18;84.88